Terminal Aerodrome Forecast
Issued by NWS Sterling, VA

Current Version | Previous Version | Graphics & Text | Print | Product List | Glossary On
Versions: 1 2 3 4 5 6 7 8 9 10 11 12 13 14 15 16 17 18 19 20 21 22 23 24 25 26 27
000
FTUS41 KLWX 052040 AAA
TAFDCA
TAF AMD
KDCA 052040Z 0521/0618 17005KT 5SM -SHRA VCTS BKN050CB
      TEMPO 0521/0522 3SM SHRA BKN060
     FM052300 28005KT P6SM BKN090
     FM060400 00000KT P6SM BKN090=

USA.gov is the U.S. government's official web portal to all federal, state and local government web resources and services.